Sincerity Ace — 3FFD7 — position and weather

sailwx.info

Track history (hours):
 
Tides and Currents Weather Stations Pressure Air Temp Water Temp Dewpoint Dewpoint Depression Visibility Wind Speed Wind Dir Waves Ship Positions

Sincerity Ace

Last reported at 2017-Jan-22 22:08 UTC. Time now 2017-Jan-24 15:19 UTC.
Position N 49°03' W 005°40'.

Length 200 m; draft 8.7 m.

Type: Cargo ship. MMSI: 351690000.

Date/timePositionNaut miles runAvg speedWind from/ knotsBaromVisibWave heightAir tempDewpointWater temp
2017-Jan-22 22:08N 49°03' W 005°40'8316.6
2017-Jan-22 17:07N 49°53' W 003°57'815.1
2017-Jan-22 16:33N 49°59' W 003°47'1414.4
2017-Jan-22 15:33N 50°08' W 003°30'1413.9
2017-Jan-22 14:33N 50°22' W 003°26'10 9.8
2017-Jan-22 13:34N 50°25' W 003°12'1717.1
2017-Jan-22 12:34N 50°25' W 002°45'1817.7
2017-Jan-22 11:33N 50°24' W 002°17'1818.2
2017-Jan-22 10:33N 50°26' W 001°49'2018.7
2017-Jan-22 09:28N 50°27' W 001°17'1718.9
2017-Jan-22 08:33N 50°29' W 000°50'1818.3
2017-Jan-22 07:34N 50°30' W 000°21'1817.6
2017-Jan-22 06:34N 50°34' E 000°06'1717.2
2017-Jan-22 05:34N 50°39' E 000°32'1717.0
2017-Jan-22 04:33N 50°47' E 000°56'1817.5
2017-Jan-22 03:33N 50°56' E 001°19'1918.7
2017-Jan-22 02:33N 51°09' E 001°40'1818.5
2017-Jan-22 01:33N 51°24' E 001°58'1616.5
2017-Jan-22 00:34N 51°22' E 002°25'1514.6
2017-Jan-21 23:34N 51°22' E 002°48'1414.3
2017-Jan-21 22:33N 51°22' E 003°11'3 2.6
2017-Jan-21 21:33N 51°20' E 003°13'1 0.9
2017-Jan-21 20:32N 51°19' E 003°13'0 0.0
2017-Jan-21 19:32N 51°19' E 003°13'0 0.0
2017-Jan-21 18:32N 51°19' E 003°13'0 0.0
2017-Jan-21 17:32N 51°19' E 003°13'0 0.0
2017-Jan-21 16:32N 51°19' E 003°13'0 0.0
2017-Jan-21 15:32N 51°19' E 003°13'0 0.0
2017-Jan-21 14:32N 51°19' E 003°13'0 0.0
2017-Jan-21 13:32N 51°19' E 003°13'0 0.0
2017-Jan-21 12:32N 51°19' E 003°13'0 0.0
2017-Jan-21 11:32N 51°19' E 003°13'0 0.0
2017-Jan-21 10:32N 51°19' E 003°13'0 0.0
2017-Jan-21 09:32N 51°19' E 003°13'0 0.0
2017-Jan-21 08:32N 51°19' E 003°13'0 0.0
2017-Jan-21 07:33N 51°19' E 003°13'1 0.8
2017-Jan-21 06:34N 51°20' E 003°13'1 0.6
2017-Jan-21 05:33N 51°21' E 003°13'4 3.8
2017-Jan-21 04:34N 51°24' E 003°10'1211.6
2017-Jan-21 03:33N 51°25' E 003°28'9 8.9
2017-Jan-21 02:33N 51°25' E 003°43'8 8.3
2017-Jan-21 01:33N 51°22' E 003°55'5 5.0
2017-Jan-21 00:33N 51°23' E 004°03'8 8.1
2017-Jan-20 23:33N 51°21' E 004°16'4 4.0
2017-Jan-20 22:33N 51°17' E 004°15'1 0.9
2017-Jan-20 21:33N 51°16' E 004°14'0 0.0
2017-Jan-20 20:30N 51°16' E 004°14'0 0.0
2017-Jan-20 19:33N 51°16' E 004°14'0 0.0
2017-Jan-20 18:33N 51°16' E 004°14'0 0.0
2017-Jan-20 17:33N 51°16' E 004°14'0 0.0
2017-Jan-20 16:33N 51°16' E 004°14'0 0.0
2017-Jan-20 15:33N 51°16' E 004°14'0 0.0
2017-Jan-20 14:33N 51°16' E 004°14'0 0.0
2017-Jan-20 13:33N 51°16' E 004°14'0 0.0
2017-Jan-20 12:30N 51°16' E 004°14'0 0.0
2017-Jan-20 11:33N 51°16' E 004°14'0 0.0
2017-Jan-20 10:33N 51°16' E 004°14'0 0.0
2017-Jan-20 09:33N 51°16' E 004°14'0 0.0
2017-Jan-20 08:33N 51°16' E 004°14'0 0.0
2017-Jan-20 07:33N 51°16' E 004°14'0 0.0
2017-Jan-20 06:33N 51°16' E 004°14'0 0.0
2017-Jan-20 05:33N 51°16' E 004°14'0 0.0
2017-Jan-20 04:33N 51°16' E 004°14'0 0.0
2017-Jan-20 03:30N 51°16' E 004°14'0 0.0
2017-Jan-20 02:33N 51°16' E 004°14'0 0.0
2017-Jan-20 01:33N 51°16' E 004°14'0 0.0
2017-Jan-20 00:33N 51°16' E 004°14'1 0.6
2017-Jan-19 23:33N 51°16' E 004°15'1 1.2
2017-Jan-19 22:33N 51°16' E 004°17'5 5.0
2017-Jan-19 21:33N 51°21' E 004°16'9 9.0
2017-Jan-19 20:33N 51°24' E 004°02'9 9.3
2017-Jan-19 19:33N 51°21' E 003°48'10 9.8
2017-Jan-19 18:33N 51°25' E 003°34'1413.7
2017-Jan-19 17:34N 51°24' E 003°12'4 4.2
2017-Jan-19 16:33N 51°20' E 003°13'2 1.6
2017-Jan-19 15:32N 51°18' E 003°14'0 0.0
2017-Jan-19 14:32N 51°18' E 003°14'0 0.0
2017-Jan-19 13:32N 51°18' E 003°14'0 0.0
2017-Jan-19 12:32N 51°18' E 003°14'0 0.0
2017-Jan-19 11:32N 51°18' E 003°14'0 0.0
2017-Jan-19 10:32N 51°18' E 003°14'0 0.0
2017-Jan-19 09:32N 51°18' E 003°14'0 0.0
2017-Jan-19 08:32N 51°18' E 003°14'0 0.0
2017-Jan-19 07:32N 51°18' E 003°14'0 0.0
2017-Jan-19 06:32N 51°18' E 003°14'0 0.0
2017-Jan-19 05:32N 51°18' E 003°14'0 0.0
2017-Jan-19 04:32N 51°18' E 003°14'0 0.0
2017-Jan-19 03:32N 51°18' E 003°14'0 0.0
2017-Jan-19 02:32N 51°18' E 003°14'0 0.0
2017-Jan-19 01:32N 51°18' E 003°14'0 0.0
2017-Jan-19 00:32N 51°18' E 003°14'0 0.0
2017-Jan-18 23:32N 51°18' E 003°14'0 0.0
2017-Jan-18 22:32N 51°18' E 003°14'0 0.0
2017-Jan-18 21:32N 51°18' E 003°14'0 0.0
2017-Jan-18 20:32N 51°18' E 003°14'0 0.0
2017-Jan-18 19:32N 51°18' E 003°14'0 0.0
2017-Jan-18 18:32N 51°18' E 003°14'0 0.0
2017-Jan-18 17:32N 51°18' E 003°14'0 0.0
2017-Jan-18 16:32N 51°18' E 003°14'0 0.0
2017-Jan-18 15:32N 51°18' E 003°14'0 0.0
2017-Jan-18 14:32N 51°18' E 003°14'2 1.7
2017-Jan-18 13:34N 51°20' E 003°13'1 1.0
2017-Jan-18 12:33N 51°21' E 003°12'1212.2
2017-Jan-18 11:34N 51°22' E 002°53'1010.0
2017-Jan-18 10:34N 51°22' E 002°37'10 9.5
2017-Jan-18 09:33N 51°20' E 002°22'1414.1
2017-Jan-18 08:33N 51°12' E 002°03'1817.9
2017-Jan-18 07:33N 51°02' E 001°40'1918.8
2017-Jan-18 06:32N 50°46' E 001°23'2617.7
2017-Jan-18 05:04N 50°31' E 000°50'1017.9
2017-Jan-18 04:32N 50°28' E 000°35'1717.9
2017-Jan-18 03:33N 50°23' E 000°08'1818.4
2017-Jan-18 02:33N 50°21' W 000°20'4120.1
2017-Jan-18 00:32N 50°22' W 001°24'2121.3
2017-Jan-17 23:33N 50°23' W 001°57'2121.1
2017-Jan-17 22:34N 50°24' W 002°30'2019.6
2017-Jan-17 21:34N 50°25' W 003°00'1615.8
2017-Jan-17 20:33N 50°25' W 003°25'1211.8
2017-Jan-17 19:33N 50°13' W 003°27'1818.3
2017-Jan-17 18:34N 49°58' W 003°43'1918.4
2017-Jan-17 17:31N 49°45' W 004°05'7117.5
2017-Jan-17 13:29N 48°56' W 005°22'61317.0
2017-Jan-16 01:33N 39°15' W 009°51'1716.8
2017-Jan-16 00:33N 38°58' W 009°52'1716.7
2017-Jan-15 23:33N 38°41' W 009°51'1716.8
2017-Jan-15 22:33N 38°25' W 009°46'1716.8
2017-Jan-15 21:33N 38°08' W 009°42'1717.0
2017-Jan-15 20:33N 37°52' W 009°37'40915.0
2017-Jan-14 17:16N 37°13' W 001°04'1419.1
2017-Jan-14 16:33N 37°22' W 000°51'1919.0
2017-Jan-14 15:33N 37°34' W 000°33'1919.1
2017-Jan-14 14:33N 37°50' W 000°19'13418.9
2017-Jan-14 07:28N 39°46' E 001°07'1719.3
2017-Jan-14 06:33N 40°01' E 001°18'1918.9
2017-Jan-14 05:34N 40°18' E 001°29'1919.4
2017-Jan-14 04:33N 40°35' E 001°42'1918.9
2017-Jan-14 03:34N 40°52' E 001°53'30 2.1
2017-Jan-13 13:23N 41°13' E 002°22'1518.2
2017-Jan-13 12:33N 41°05' E 002°39'1818.2
2017-Jan-13 11:33N 40°56' E 003°00'1717.4
2017-Jan-13 10:33N 40°48' E 003°21'  
Track history (hours):
 
Tides and Currents Weather Stations Pressure Air Temp Water Temp Dewpoint Dewpoint Depression Visibility Wind Speed Wind Dir Waves Ship Positions

Sincerity Ace

Last reported at 2017-Jan-22 22:08 UTC. Time now 2017-Jan-24 15:19 UTC.
Position N 49°03' W 005°40'.

Length 200 m; draft 8.7 m.

Type: Cargo ship. MMSI: 351690000.

Date/timePositionNaut miles runAvg speedWind from/ knotsBaromVisibWave heightAir tempDewpointWater temp
2017-Jan-22 22:08N 49°03' W 005°40'8316.6
2017-Jan-22 17:07N 49°53' W 003°57'815.1
2017-Jan-22 16:33N 49°59' W 003°47'1414.4
2017-Jan-22 15:33N 50°08' W 003°30'1413.9
2017-Jan-22 14:33N 50°22' W 003°26'10 9.8
2017-Jan-22 13:34N 50°25' W 003°12'1717.1
2017-Jan-22 12:34N 50°25' W 002°45'1817.7
2017-Jan-22 11:33N 50°24' W 002°17'1818.2
2017-Jan-22 10:33N 50°26' W 001°49'2018.7
2017-Jan-22 09:28N 50°27' W 001°17'1718.9
2017-Jan-22 08:33N 50°29' W 000°50'1818.3
2017-Jan-22 07:34N 50°30' W 000°21'1817.6
2017-Jan-22 06:34N 50°34' E 000°06'1717.2
2017-Jan-22 05:34N 50°39' E 000°32'1717.0
2017-Jan-22 04:33N 50°47' E 000°56'1817.5
2017-Jan-22 03:33N 50°56' E 001°19'1918.7
2017-Jan-22 02:33N 51°09' E 001°40'1818.5
2017-Jan-22 01:33N 51°24' E 001°58'1616.5
2017-Jan-22 00:34N 51°22' E 002°25'1514.6
2017-Jan-21 23:34N 51°22' E 002°48'1414.3
2017-Jan-21 22:33N 51°22' E 003°11'3 2.6
2017-Jan-21 21:33N 51°20' E 003°13'1 0.9
2017-Jan-21 20:32N 51°19' E 003°13'0 0.0
2017-Jan-21 19:32N 51°19' E 003°13'0 0.0
2017-Jan-21 18:32N 51°19' E 003°13'0 0.0
2017-Jan-21 17:32N 51°19' E 003°13'0 0.0
2017-Jan-21 16:32N 51°19' E 003°13'0 0.0
2017-Jan-21 15:32N 51°19' E 003°13'0 0.0
2017-Jan-21 14:32N 51°19' E 003°13'0 0.0
2017-Jan-21 13:32N 51°19' E 003°13'0 0.0
2017-Jan-21 12:32N 51°19' E 003°13'0 0.0
2017-Jan-21 11:32N 51°19' E 003°13'0 0.0
2017-Jan-21 10:32N 51°19' E 003°13'0 0.0
2017-Jan-21 09:32N 51°19' E 003°13'0 0.0
2017-Jan-21 08:32N 51°19' E 003°13'0 0.0
2017-Jan-21 07:33N 51°19' E 003°13'1 0.8
2017-Jan-21 06:34N 51°20' E 003°13'1 0.6
2017-Jan-21 05:33N 51°21' E 003°13'4 3.8
2017-Jan-21 04:34N 51°24' E 003°10'1211.6
2017-Jan-21 03:33N 51°25' E 003°28'9 8.9
2017-Jan-21 02:33N 51°25' E 003°43'8 8.3
2017-Jan-21 01:33N 51°22' E 003°55'5 5.0
2017-Jan-21 00:33N 51°23' E 004°03'8 8.1
2017-Jan-20 23:33N 51°21' E 004°16'4 4.0
2017-Jan-20 22:33N 51°17' E 004°15'1 0.9
2017-Jan-20 21:33N 51°16' E 004°14'0 0.0
2017-Jan-20 20:30N 51°16' E 004°14'0 0.0
2017-Jan-20 19:33N 51°16' E 004°14'0 0.0
2017-Jan-20 18:33N 51°16' E 004°14'0 0.0
2017-Jan-20 17:33N 51°16' E 004°14'0 0.0
2017-Jan-20 16:33N 51°16' E 004°14'0 0.0
2017-Jan-20 15:33N 51°16' E 004°14'0 0.0
2017-Jan-20 14:33N 51°16' E 004°14'0 0.0
2017-Jan-20 13:33N 51°16' E 004°14'0 0.0
2017-Jan-20 12:30N 51°16' E 004°14'0 0.0
2017-Jan-20 11:33N 51°16' E 004°14'0 0.0
2017-Jan-20 10:33N 51°16' E 004°14'0 0.0
2017-Jan-20 09:33N 51°16' E 004°14'0 0.0
2017-Jan-20 08:33N 51°16' E 004°14'0 0.0
2017-Jan-20 07:33N 51°16' E 004°14'0 0.0
2017-Jan-20 06:33N 51°16' E 004°14'0 0.0
2017-Jan-20 05:33N 51°16' E 004°14'0 0.0
2017-Jan-20 04:33N 51°16' E 004°14'0 0.0
2017-Jan-20 03:30N 51°16' E 004°14'0 0.0
2017-Jan-20 02:33N 51°16' E 004°14'0 0.0
2017-Jan-20 01:33N 51°16' E 004°14'0 0.0
2017-Jan-20 00:33N 51°16' E 004°14'1 0.6
2017-Jan-19 23:33N 51°16' E 004°15'1 1.2
2017-Jan-19 22:33N 51°16' E 004°17'5 5.0
2017-Jan-19 21:33N 51°21' E 004°16'9 9.0
2017-Jan-19 20:33N 51°24' E 004°02'9 9.3
2017-Jan-19 19:33N 51°21' E 003°48'10 9.8
2017-Jan-19 18:33N 51°25' E 003°34'1413.7
2017-Jan-19 17:34N 51°24' E 003°12'4 4.2
2017-Jan-19 16:33N 51°20' E 003°13'2 1.6
2017-Jan-19 15:32N 51°18' E 003°14'0 0.0
2017-Jan-19 14:32N 51°18' E 003°14'0 0.0
2017-Jan-19 13:32N 51°18' E 003°14'0 0.0
2017-Jan-19 12:32N 51°18' E 003°14'0 0.0
2017-Jan-19 11:32N 51°18' E 003°14'0 0.0
2017-Jan-19 10:32N 51°18' E 003°14'0 0.0
2017-Jan-19 09:32N 51°18' E 003°14'0 0.0
2017-Jan-19 08:32N 51°18' E 003°14'0 0.0
2017-Jan-19 07:32N 51°18' E 003°14'0 0.0
2017-Jan-19 06:32N 51°18' E 003°14'0 0.0
2017-Jan-19 05:32N 51°18' E 003°14'0 0.0
2017-Jan-19 04:32N 51°18' E 003°14'0 0.0
2017-Jan-19 03:32N 51°18' E 003°14'0 0.0
2017-Jan-19 02:32N 51°18' E 003°14'0 0.0
2017-Jan-19 01:32N 51°18' E 003°14'0 0.0
2017-Jan-19 00:32N 51°18' E 003°14'0 0.0
2017-Jan-18 23:32N 51°18' E 003°14'0 0.0
2017-Jan-18 22:32N 51°18' E 003°14'0 0.0
2017-Jan-18 21:32N 51°18' E 003°14'0 0.0
2017-Jan-18 20:32N 51°18' E 003°14'0 0.0
2017-Jan-18 19:32N 51°18' E 003°14'0 0.0
2017-Jan-18 18:32N 51°18' E 003°14'0 0.0
2017-Jan-18 17:32N 51°18' E 003°14'0 0.0
2017-Jan-18 16:32N 51°18' E 003°14'0 0.0
2017-Jan-18 15:32N 51°18' E 003°14'0 0.0
2017-Jan-18 14:32N 51°18' E 003°14'2 1.7
2017-Jan-18 13:34N 51°20' E 003°13'1 1.0
2017-Jan-18 12:33N 51°21' E 003°12'1212.2
2017-Jan-18 11:34N 51°22' E 002°53'1010.0
2017-Jan-18 10:34N 51°22' E 002°37'10 9.5
2017-Jan-18 09:33N 51°20' E 002°22'1414.1
2017-Jan-18 08:33N 51°12' E 002°03'1817.9
2017-Jan-18 07:33N 51°02' E 001°40'1918.8
2017-Jan-18 06:32N 50°46' E 001°23'2617.7
2017-Jan-18 05:04N 50°31' E 000°50'1017.9
2017-Jan-18 04:32N 50°28' E 000°35'1717.9
2017-Jan-18 03:33N 50°23' E 000°08'1818.4
2017-Jan-18 02:33N 50°21' W 000°20'4120.1
2017-Jan-18 00:32N 50°22' W 001°24'2121.3
2017-Jan-17 23:33N 50°23' W 001°57'2121.1
2017-Jan-17 22:34N 50°24' W 002°30'2019.6
2017-Jan-17 21:34N 50°25' W 003°00'1615.8
2017-Jan-17 20:33N 50°25' W 003°25'1211.8
2017-Jan-17 19:33N 50°13' W 003°27'1818.3
2017-Jan-17 18:34N 49°58' W 003°43'1918.4
2017-Jan-17 17:31N 49°45' W 004°05'7117.5
2017-Jan-17 13:29N 48°56' W 005°22'61317.0
2017-Jan-16 01:33N 39°15' W 009°51'1716.8
2017-Jan-16 00:33N 38°58' W 009°52'1716.7
2017-Jan-15 23:33N 38°41' W 009°51'1716.8
2017-Jan-15 22:33N 38°25' W 009°46'1716.8
2017-Jan-15 21:33N 38°08' W 009°42'1717.0
2017-Jan-15 20:33N 37°52' W 009°37'40915.0
2017-Jan-14 17:16N 37°13' W 001°04'1419.1
2017-Jan-14 16:33N 37°22' W 000°51'1919.0
2017-Jan-14 15:33N 37°34' W 000°33'1919.1
2017-Jan-14 14:33N 37°50' W 000°19'13418.9
2017-Jan-14 07:28N 39°46' E 001°07'1719.3
2017-Jan-14 06:33N 40°01' E 001°18'1918.9
2017-Jan-14 05:34N 40°18' E 001°29'1919.4
2017-Jan-14 04:33N 40°35' E 001°42'1918.9
2017-Jan-14 03:34N 40°52' E 001°53'30 2.1
2017-Jan-13 13:23N 41°13' E 002°22'1518.2
2017-Jan-13 12:33N 41°05' E 002°39'1818.2
2017-Jan-13 11:33N 40°56' E 003°00'1717.4
2017-Jan-13 10:33N 40°48' E 003°21'  

Dump ship's entire track history